Time;durP1;ratioP1;P1;durP2;ratioP2;P2;SDS_P1;SDS_P2;PMS_P1;PMS_P2;Temp;Humidity;BMP_temperature;BMP_pressure;BME280_temperature;BME280_humidity;BME280_pressure;Samples;Min_cycle;Max_cycle;Signal;HPM_P1;HPM_P2
2022/12/24 00:02:14;;;;;;;103.40;28.13;;;6.00;99.90;;;;;;5037374;28;20048;-30
2022/12/24 00:04:40;;;;;;;116.82;28.67;;;5.90;99.90;;;;;;5055202;28;20052;-30
2022/12/24 00:07:05;;;;;;;99.78;26.98;;;5.80;99.90;;;;;;5054520;28;20090;-30
2022/12/24 00:09:31;;;;;;;102.72;32.50;;;5.80;99.90;;;;;;5055101;28;20045;-30
2022/12/24 00:11:57;;;;;;;107.40;29.60;;;5.90;99.90;;;;;;5036664;28;20080;-30
2022/12/24 00:14:23;;;;;;;124.10;29.38;;;5.90;99.90;;;;;;5036935;28;20107;-30
2022/12/24 00:16:49;;;;;;;99.07;26.77;;;5.80;99.90;;;;;;5054046;28;20045;-29
2022/12/24 00:19:15;;;;;;;95.20;27.27;;;5.80;99.90;;;;;;5037647;28;20364;-30
2022/12/24 00:21:40;;;;;;;107.25;27.00;;;6.10;99.90;;;;;;5036663;28;20053;-30
2022/12/24 00:24:06;;;;;;;103.90;27.60;;;6.10;99.90;;;;;;5020339;28;20140;-30
2022/12/24 00:26:33;;;;;;;105.97;28.98;;;6.00;99.90;;;;;;5054188;28;20039;-29
2022/12/24 00:28:59;;;;;;;143.55;30.33;;;5.80;99.90;;;;;;5055080;28;20041;-28
2022/12/24 00:31:25;;;;;;;111.18;27.05;;;6.10;99.90;;;;;;5037236;28;20379;-29
2022/12/24 00:33:51;;;;;;;106.35;27.27;;;5.90;99.90;;;;;;5053922;28;20486;-30
2022/12/24 00:36:18;;;;;;;112.13;29.00;;;6.20;99.90;;;;;;5054686;28;20059;-29
2022/12/24 00:38:44;;;;;;;136.73;29.95;;;6.10;99.90;;;;;;5054305;28;20106;-29
2022/12/24 00:41:23;;;;;;;110.63;28.45;;;5.90;99.90;;;;;;5053986;28;20088;-29
2022/12/24 00:44:01;;;;;;;110.57;28.13;;;5.80;99.90;;;;;;5019975;28;20136;-29
2022/12/24 00:46:29;;;;;;;125.53;28.98;;;6.00;99.90;;;;;;5054166;28;20072;-28
2022/12/24 00:48:55;;;;;;;109.05;28.92;;;5.80;99.90;;;;;;5036136;28;20179;-29
2022/12/24 00:51:22;;;;;;;131.20;29.83;;;5.90;99.90;;;;;;5037094;28;20609;-28
2022/12/24 00:53:48;;;;;;;167.98;32.17;;;5.80;99.90;;;;;;5019809;28;20375;-28
2022/12/24 00:56:14;;;;;;;114.78;29.98;;;6.20;99.90;;;;;;5053761;28;20044;-28
2022/12/24 00:58:40;;;;;;;130.38;28.95;;;6.20;99.90;;;;;;5053717;28;20044;-28
2022/12/24 01:01:05;;;;;;;145.75;30.45;;;6.10;99.90;;;;;;5053758;28;20055;-28
2022/12/24 01:03:34;;;;;;;120.30;29.40;;;5.90;99.90;;;;;;5036495;28;20099;-28
2022/12/24 01:06:20;;;;;;;120.93;29.00;;;6.10;99.90;;;;;;5036053;28;20045;-28
2022/12/24 01:08:50;;;;;;;137.55;29.88;;;6.10;99.90;;;;;;5053790;28;20144;-28
2022/12/24 01:11:16;;;;;;;161.15;30.42;;;6.10;99.90;;;;;;5053652;28;20055;-28
2022/12/24 01:13:42;;;;;;;123.22;32.08;;;5.80;99.90;;;;;;5053560;28;20052;-28
2022/12/24 01:16:19;;;;;;;108.38;28.92;;;6.00;99.90;;;;;;5035983;28;20540;-28
2022/12/24 01:18:45;;;;;;;170.50;30.75;;;5.90;99.90;;;;;;5053870;28;20053;-28
2022/12/24 01:21:13;;;;;;;133.70;29.90;;;6.10;99.90;;;;;;5035622;28;20170;-28
2022/12/24 01:23:39;;;;;;;115.10;28.52;;;6.20;99.90;;;;;;5053439;28;20095;-28
2022/12/24 01:26:05;;;;;;;192.70;33.63;;;6.10;99.90;;;;;;5053429;28;20048;-28
2022/12/24 01:28:32;;;;;;;162.82;31.98;;;6.20;99.90;;;;;;5056309;28;20501;-28
2022/12/24 01:30:58;;;;;;;134.98;31.08;;;5.90;99.90;;;;;;5040090;28;20041;-29
2022/12/24 01:33:26;;;;;;;175.25;33.72;;;6.10;99.90;;;;;;5058222;28;20045;-28
2022/12/24 01:35:52;;;;;;;143.90;31.83;;;6.10;99.90;;;;;;5039668;28;20057;-28
2022/12/24 01:38:18;;;;;;;166.77;31.40;;;6.20;99.90;;;;;;5058045;28;20075;-28
2022/12/24 01:43:31;;;;;;;177.75;32.72;;;5.90;99.90;;;;;;5039726;28;20064;-28
2022/12/24 01:46:13;;;;;;;106.85;28.77;;;5.80;99.90;;;;;;5057214;28;20049;-28
2022/12/24 01:48:55;;;;;;;104.63;27.92;;;6.10;99.90;;;;;;5040260;28;20114;-28
2022/12/24 01:51:59;;;;;;;125.18;31.13;;;6.00;99.90;;;;;;5056911;28;20492;-28
2022/12/24 01:54:47;;;;;;;142.73;30.33;;;6.00;99.90;;;;;;5039516;28;20061;-28
2022/12/24 01:57:20;;;;;;;146.63;32.25;;;6.00;99.90;;;;;;5039824;28;20049;-27
2022/12/24 01:59:50;;;;;;;176.50;33.75;;;5.90;99.90;;;;;;5057097;28;20487;-27
2022/12/24 02:02:17;;;;;;;149.32;32.55;;;6.20;99.90;;;;;;5056955;28;20482;-27
2022/12/24 02:04:55;;;;;;;153.80;33.03;;;6.10;99.90;;;;;;5056646;28;20491;-27
2022/12/24 02:07:21;;;;;;;210.23;36.25;;;5.80;99.90;;;;;;5056870;28;20051;-27
2022/12/24 02:09:50;;;;;;;143.57;32.53;;;5.80;99.90;;;;;;5056823;28;20133;-28
2022/12/24 02:12:16;;;;;;;180.63;35.42;;;6.00;99.90;;;;;;5056897;28;20150;-27
2022/12/24 02:14:42;;;;;;;157.27;35.05;;;6.00;99.90;;;;;;5057592;28;20057;-27
2022/12/24 02:17:22;;;;;;;163.68;35.58;;;6.20;99.90;;;;;;5056695;28;20124;-27
2022/12/24 02:20:27;;;;;;;171.23;35.45;;;6.00;99.90;;;;;;5056727;28;20084;-27
2022/12/24 02:22:53;;;;;;;201.60;37.90;;;6.00;99.90;;;;;;5057160;28;20091;-27
2022/12/24 02:25:27;;;;;;;215.57;37.72;;;6.10;99.90;;;;;;5056638;28;20088;-27
2022/12/24 02:28:14;;;;;;;182.20;37.25;;;6.20;99.90;;;;;;5057121;28;20103;-29
2022/12/24 02:30:43;;;;;;;247.90;40.08;;;6.30;99.90;;;;;;5056794;28;20044;-29
2022/12/24 02:33:12;;;;;;;240.90;39.05;;;6.20;99.90;;;;;;5057181;28;20041;-29
2022/12/24 02:36:03;;;;;;;163.20;34.95;;;6.20;99.90;;;;;;5056607;28;20060;-29
2022/12/24 02:38:43;;;;;;;179.68;35.75;;;5.90;99.90;;;;;;5056916;28;20171;-29
2022/12/24 02:42:04;;;;;;;191.43;37.28;;;6.00;99.90;;;;;;5056379;28;20040;-29
2022/12/24 02:44:16;;;;;;;169.52;34.55;;;5.90;99.90;;;;;;5056778;28;20099;-29
2022/12/24 02:46:42;;;;;;;143.20;34.33;;;6.20;99.90;;;;;;5056389;28;20068;-29
2022/12/24 02:49:08;;;;;;;113.10;32.22;;;6.20;99.90;;;;;;5056681;28;20391;-29
2022/12/24 02:51:33;;;;;;;109.28;31.70;;;6.30;99.90;;;;;;5021807;28;20078;-29
2022/12/24 02:53:59;;;;;;;109.50;31.02;;;6.10;99.90;;;;;;5056586;28;20146;-29
2022/12/24 02:56:25;;;;;;;123.03;32.95;;;6.40;99.90;;;;;;5005646;28;20513;-29
2022/12/24 02:59:28;;;;;;;129.38;33.00;;;6.20;99.90;;;;;;5038358;28;20048;-29
2022/12/24 03:02:06;;;;;;;99.67;30.13;;;6.10;99.90;;;;;;5055881;28;20056;-29
2022/12/24 03:04:56;;;;;;;113.82;32.65;;;6.50;99.90;;;;;;5055879;28;20049;-29
2022/12/24 03:07:28;;;;;;;83.05;28.83;;;6.20;99.90;;;;;;5038054;28;20044;-29
2022/12/24 03:10:09;;;;;;;85.05;30.50;;;6.30;99.90;;;;;;5056365;28;20049;-28
2022/12/24 03:12:41;;;;;;;86.32;32.67;;;6.50;99.90;;;;;;5037915;28;20106;-29
2022/12/24 03:15:10;;;;;;;88.65;31.00;;;6.50;99.90;;;;;;5055966;28;20061;-28
2022/12/24 03:17:39;;;;;;;84.97;34.22;;;6.50;99.90;;;;;;5055597;28;20075;-29
2022/12/24 03:20:07;;;;;;;79.63;31.30;;;6.90;99.90;;;;;;5055592;28;20049;-28
2022/12/24 03:22:37;;;;;;;72.00;34.45;;;7.00;99.90;;;;;;5055535;28;20143;-28
2022/12/24 03:25:03;;;;;;;65.38;30.17;;;7.00;99.90;;;;;;5055429;28;20075;-28
2022/12/24 03:27:31;;;;;;;63.88;32.03;;;6.90;99.90;;;;;;5055313;28;20040;-28
2022/12/24 03:29:57;;;;;;;58.13;29.13;;;7.10;99.90;;;;;;5055641;28;20107;-29
2022/12/24 03:32:26;;;;;;;57.85;27.08;;;7.10;99.90;;;;;;5037725;28;20049;-29
2022/12/24 03:34:52;;;;;;;50.17;26.17;;;7.00;99.90;;;;;;5055318;28;20471;-29
2022/12/24 03:37:18;;;;;;;50.08;25.77;;;7.20;99.90;;;;;;5055205;28;20045;-28
2022/12/24 03:39:44;;;;;;;47.70;23.23;;;7.10;99.90;;;;;;5037624;28;20048;-29
2022/12/24 03:42:09;;;;;;;40.42;21.23;;;7.10;99.90;;;;;;5055122;28;20052;-29
2022/12/24 03:44:35;;;;;;;36.22;20.88;;;7.20;99.90;;;;;;5055087;28;20053;-29
2022/12/24 03:47:01;;;;;;;39.13;17.88;;;7.20;99.90;;;;;;5037205;28;20045;-29
2022/12/24 03:49:26;;;;;;;31.13;16.77;;;7.30;99.90;;;;;;5055262;28;20045;-30
2022/12/24 03:51:52;;;;;;;31.35;16.92;;;7.30;99.90;;;;;;5054472;28;20056;-30
2022/12/24 03:54:18;;;;;;;32.25;17.52;;;7.40;99.90;;;;;;5054860;28;20050;-29
2022/12/24 03:56:44;;;;;;;31.00;14.85;;;7.40;99.90;;;;;;5037304;28;20087;-29
2022/12/24 03:59:09;;;;;;;26.73;13.95;;;7.40;99.90;;;;;;5054770;28;20372;-30
2022/12/24 04:01:35;;;;;;;32.97;14.27;;;7.30;99.90;;;;;;5054775;28;20091;-30
2022/12/24 04:04:01;;;;;;;31.05;14.60;;;7.20;99.90;;;;;;5054697;28;20060;-30
2022/12/24 04:06:26;;;;;;;26.98;13.85;;;7.20;99.90;;;;;;5055116;28;20474;-30
2022/12/24 04:08:52;;;;;;;21.88;12.18;;;7.20;99.90;;;;;;5037707;28;20045;-30
2022/12/24 04:11:18;;;;;;;37.15;14.70;;;7.20;99.90;;;;;;5054608;28;20474;-29
2022/12/24 04:13:43;;;;;;;24.60;12.60;;;7.20;99.90;;;;;;5055102;28;20040;-30
2022/12/24 04:16:12;;;;;;;25.02;12.35;;;7.30;99.90;;;;;;5054520;28;20055;-30
2022/12/24 04:18:39;;;;;;;27.08;12.20;;;7.40;99.90;;;;;;5054735;28;20053;-30
2022/12/24 04:21:06;;;;;;;29.75;11.43;;;7.50;99.90;;;;;;5054081;28;20088;-30
2022/12/24 04:23:33;;;;;;;25.10;11.80;;;7.50;99.90;;;;;;5054369;28;20049;-29
2022/12/24 04:26:04;;;;;;;27.42;10.93;;;7.70;99.90;;;;;;5054265;28;20403;-29
2022/12/24 04:28:30;;;;;;;37.47;12.82;;;7.80;99.90;;;;;;5037017;28;20483;-29
2022/12/24 04:31:04;;;;;;;37.85;11.95;;;7.90;99.90;;;;;;5055036;28;20048;-29
2022/12/24 04:33:30;;;;;;;40.90;12.55;;;7.80;99.90;;;;;;5054691;28;20045;-29
2022/12/24 04:35:56;;;;;;;42.50;13.52;;;7.80;99.90;;;;;;5054666;28;20056;-29
2022/12/24 04:38:22;;;;;;;41.53;11.25;;;7.80;99.90;;;;;;5054376;28;20063;-29
2022/12/24 04:40:58;;;;;;;44.00;11.88;;;7.80;99.90;;;;;;5054023;28;20522;-29
2022/12/24 04:43:24;;;;;;;45.35;11.35;;;7.80;99.90;;;;;;5054057;28;20146;-29
2022/12/24 04:45:49;;;;;;;46.17;10.77;;;7.90;99.90;;;;;;5036028;28;20076;-29
2022/12/24 04:48:15;;;;;;;41.08;9.68;;;8.00;99.90;;;;;;5036396;28;20041;-29
2022/12/24 04:50:40;;;;;;;41.50;8.77;;;8.00;99.90;;;;;;5054181;28;20053;-28
2022/12/24 04:53:06;;;;;;;37.65;9.45;;;7.90;99.90;;;;;;5054407;28;20055;-28
2022/12/24 04:55:32;;;;;;;43.75;7.30;;;7.80;99.90;;;;;;5054361;28;20041;-28
2022/12/24 04:57:57;;;;;;;55.85;8.73;;;7.80;99.90;;;;;;5036001;28;20044;-28
2022/12/24 05:00:23;;;;;;;43.08;7.05;;;7.70;99.90;;;;;;5036187;28;20041;-28
2022/12/24 05:02:49;;;;;;;44.78;8.13;;;7.70;99.90;;;;;;5054187;28;20045;-28
2022/12/24 05:05:15;;;;;;;51.63;9.20;;;7.60;99.90;;;;;;5036111;28;20052;-28
2022/12/24 05:07:40;;;;;;;54.42;8.50;;;7.60;99.90;;;;;;5035592;28;20049;-28
2022/12/24 05:10:09;;;;;;;48.67;8.43;;;7.80;99.90;;;;;;5020421;28;20040;-28
2022/12/24 05:12:35;;;;;;;47.13;8.07;;;7.80;99.90;;;;;;5053571;28;20051;-28
2022/12/24 05:15:01;;;;;;;55.42;8.52;;;7.80;99.90;;;;;;5053822;28;20123;-28
2022/12/24 05:17:27;;;;;;;45.97;7.82;;;7.80;99.90;;;;;;5035777;28;20088;-28
2022/12/24 05:19:52;;;;;;;46.83;7.82;;;7.90;99.90;;;;;;5053554;28;20056;-28
2022/12/24 05:27:47;;;;;;;48.58;8.70;;;7.90;99.90;;;;;;5053653;28;20114;-28
2022/12/24 05:30:12;;;;;;;54.85;9.38;;;7.80;99.90;;;;;;5053391;28;20052;-28
2022/12/24 05:32:38;;;;;;;50.92;6.82;;;7.80;99.90;;;;;;5053653;28;20125;-28
2022/12/24 05:35:04;;;;;;;43.38;6.88;;;7.80;99.90;;;;;;5036096;28;20151;-28
2022/12/24 05:37:29;;;;;;;48.60;7.13;;;7.80;99.90;;;;;;5035800;28;20073;-28
2022/12/24 05:39:55;;;;;;;47.38;7.15;;;7.80;99.90;;;;;;5053379;28;20048;-28
2022/12/24 05:42:21;;;;;;;44.72;7.65;;;7.90;99.90;;;;;;5036578;28;20076;-28
2022/12/24 05:44:46;;;;;;;47.15;7.28;;;7.80;99.90;;;;;;5036243;28;20049;-28
2022/12/24 05:47:12;;;;;;;44.97;6.90;;;7.90;99.90;;;;;;5053199;28;20042;-28
2022/12/24 05:49:38;;;;;;;55.97;7.78;;;7.90;99.90;;;;;;5053562;28;20097;-28
2022/12/24 05:52:03;;;;;;;34.13;5.53;;;7.90;99.90;;;;;;5036273;28;20045;-28
2022/12/24 05:54:29;;;;;;;37.70;7.28;;;7.90;99.90;;;;;;5054023;28;20486;-28
2022/12/24 05:56:55;;;;;;;53.15;7.82;;;8.00;99.90;;;;;;5053209;28;20499;-29
2022/12/24 05:59:20;;;;;;;59.83;6.85;;;7.90;99.90;;;;;;5053984;28;20375;-28
2022/12/24 06:01:47;;;;;;;55.22;7.15;;;8.00;99.90;;;;;;5053107;28;20084;-28
2022/12/24 06:04:13;;;;;;;50.03;8.13;;;7.90;99.90;;;;;;5052782;28;20509;-28
2022/12/24 06:06:38;;;;;;;42.75;6.85;;;7.90;99.90;;;;;;5052985;28;20045;-28
2022/12/24 06:09:04;;;;;;;42.67;7.15;;;7.90;99.90;;;;;;5053146;28;20052;-28
2022/12/24 06:11:30;;;;;;;51.00;7.30;;;8.00;99.90;;;;;;5052994;28;20495;-28
2022/12/24 06:13:56;;;;;;;51.08;6.72;;;8.00;99.90;;;;;;5036850;28;20041;-28
2022/12/24 06:16:26;;;;;;;47.22;6.75;;;8.00;99.90;;;;;;5056785;28;20037;-28
2022/12/24 06:18:53;;;;;;;58.25;8.32;;;8.00;99.90;;;;;;5039640;28;20041;-28
2022/12/24 06:21:19;;;;;;;61.05;8.43;;;7.90;99.90;;;;;;5056741;28;20048;-28
2022/12/24 06:23:45;;;;;;;53.35;9.85;;;8.00;99.90;;;;;;5056643;28;20056;-28
2022/12/24 06:26:13;;;;;;;50.88;6.57;;;8.00;99.90;;;;;;5056500;28;20048;-28
2022/12/24 06:28:39;;;;;;;51.63;6.65;;;7.90;99.90;;;;;;5057080;28;20383;-28
2022/12/24 06:31:06;;;;;;;48.92;7.10;;;7.90;99.90;;;;;;5056773;28;20041;-28
2022/12/24 06:33:33;;;;;;;62.10;9.18;;;7.90;99.90;;;;;;5056426;28;20056;-28
2022/12/24 06:35:59;;;;;;;52.95;7.18;;;7.90;99.90;;;;;;5056806;28;20049;-29
2022/12/24 06:38:25;;;;;;;56.90;9.48;;;7.90;99.90;;;;;;5038809;28;20057;-28
2022/12/24 06:40:52;;;;;;;47.22;7.47;;;7.90;99.90;;;;;;5056312;28;20096;-28
2022/12/24 06:43:20;;;;;;;51.95;8.38;;;7.90;99.90;;;;;;5056293;28;20041;-28
2022/12/24 06:45:47;;;;;;;46.97;6.55;;;7.90;99.90;;;;;;5021915;28;20135;-28
2022/12/24 06:48:14;;;;;;;55.95;7.35;;;7.90;99.90;;;;;;5056428;28;20049;-28
2022/12/24 06:50:40;;;;;;;49.10;7.93;;;7.80;99.90;;;;;;5038574;28;20045;-28
2022/12/24 06:53:06;;;;;;;50.30;8.38;;;7.80;99.90;;;;;;5056057;28;20045;-28
2022/12/24 06:55:31;;;;;;;57.60;9.38;;;7.80;99.90;;;;;;5038288;28;20086;-28
2022/12/24 06:57:57;;;;;;;45.75;7.13;;;7.80;99.90;;;;;;5055975;28;20047;-28
2022/12/24 07:00:23;;;;;;;46.17;7.88;;;7.80;99.90;;;;;;5056201;28;20102;-28
2022/12/24 07:02:49;;;;;;;45.47;7.80;;;7.80;99.90;;;;;;5038582;28;20044;-28
2022/12/24 07:05:14;;;;;;;52.72;7.70;;;7.80;99.90;;;;;;5055954;28;20555;-28
2022/12/24 07:07:42;;;;;;;54.00;8.30;;;7.70;99.90;;;;;;5056557;28;20045;-28
2022/12/24 07:10:11;;;;;;;59.38;8.52;;;7.70;99.90;;;;;;5056400;28;20056;-28
2022/12/24 07:12:37;;;;;;;41.13;7.68;;;7.70;99.90;;;;;;5055979;28;20131;-28
2022/12/24 07:15:03;;;;;;;38.00;6.05;;;7.60;99.90;;;;;;5038519;28;20602;-28
2022/12/24 07:17:29;;;;;;;56.45;10.07;;;7.60;99.90;;;;;;5055632;28;20045;-28
2022/12/24 07:19:55;;;;;;;50.08;9.00;;;7.60;99.90;;;;;;5055597;28;20071;-28
2022/12/24 07:22:20;;;;;;;49.85;7.32;;;7.60;99.90;;;;;;5055795;28;20475;-28
2022/12/24 07:24:46;;;;;;;50.40;6.63;;;7.60;99.90;;;;;;5020465;28;20150;-28
2022/12/24 07:27:12;;;;;;;43.22;7.05;;;7.60;99.90;;;;;;5055524;28;20041;-28
2022/12/24 07:29:39;;;;;;;50.08;7.60;;;7.60;99.90;;;;;;5037826;28;20072;-28
2022/12/24 07:32:05;;;;;;;47.03;6.70;;;7.60;99.90;;;;;;5055407;28;20041;-28
2022/12/24 07:34:30;;;;;;;57.08;7.47;;;7.60;99.90;;;;;;5037883;28;20056;-28
2022/12/24 07:36:56;;;;;;;46.08;6.72;;;7.60;99.90;;;;;;5055533;28;20045;-27
2022/12/24 07:39:22;;;;;;;52.90;7.28;;;7.60;99.90;;;;;;5055229;28;20466;-27
2022/12/24 07:41:49;;;;;;;46.88;8.77;;;7.60;99.90;;;;;;5037333;28;20045;-27
2022/12/24 07:44:15;;;;;;;46.97;6.28;;;7.70;99.90;;;;;;5038112;28;20053;-27
2022/12/24 07:46:42;;;;;;;53.47;8.18;;;7.60;99.90;;;;;;5055245;28;20099;-27
2022/12/24 07:49:08;;;;;;;57.05;8.35;;;7.70;99.90;;;;;;5055365;28;20041;-27
2022/12/24 07:51:33;;;;;;;50.88;7.05;;;7.80;99.90;;;;;;5054950;28;20526;-27
2022/12/24 07:54:00;;;;;;;48.65;7.78;;;7.70;99.90;;;;;;5054884;28;20049;-27
2022/12/24 07:56:26;;;;;;;44.95;8.40;;;7.80;99.90;;;;;;5054894;28;20510;-27
2022/12/24 07:58:52;;;;;;;44.78;6.47;;;7.90;99.90;;;;;;5054865;28;20131;-27
2022/12/24 08:01:17;;;;;;;43.63;6.47;;;8.00;99.90;;;;;;5037273;28;20044;-27
2022/12/24 08:03:43;;;;;;;39.67;6.28;;;8.00;99.90;;;;;;5054759;28;20041;-27
2022/12/24 08:06:10;;;;;;;39.53;6.18;;;8.00;99.90;;;;;;5055084;28;20360;-27
2022/12/24 08:08:36;;;;;;;49.65;8.52;;;8.10;99.90;;;;;;5054617;28;20047;-27
2022/12/24 08:11:03;;;;;;;45.72;7.78;;;8.00;99.90;;;;;;5054883;28;20107;-27
2022/12/24 08:13:29;;;;;;;40.47;8.15;;;8.00;99.90;;;;;;5037504;28;20049;-28
2022/12/24 08:15:55;;;;;;;41.08;6.60;;;8.00;99.90;;;;;;5054522;28;20098;-27
2022/12/24 08:18:21;;;;;;;50.70;6.40;;;8.00;99.90;;;;;;5036903;28;20049;-27
2022/12/24 08:20:47;;;;;;;45.55;6.63;;;8.00;99.90;;;;;;5054950;28;20139;-28
2022/12/24 08:23:13;;;;;;;45.35;7.00;;;8.00;99.90;;;;;;5037067;28;20139;-28
2022/12/24 08:25:46;;;;;;;43.90;5.75;;;8.00;99.90;;;;;;5054256;28;20072;-28
2022/12/24 08:28:16;;;;;;;40.63;8.00;;;8.00;99.90;;;;;;5055173;28;20440;-28
2022/12/24 08:30:43;;;;;;;54.38;8.00;;;8.00;99.90;;;;;;5038018;28;20490;-28
2022/12/24 08:33:09;;;;;;;54.85;7.28;;;8.10;99.90;;;;;;5054149;28;20475;-28
2022/12/24 08:35:34;;;;;;;40.20;6.28;;;8.10;99.90;;;;;;5036230;28;20056;-28
2022/12/24 08:38:02;;;;;;;42.55;7.60;;;8.20;99.90;;;;;;5035973;28;20080;-28
2022/12/24 08:40:28;;;;;;;52.50;8.45;;;8.20;99.90;;;;;;5054875;28;20059;-27
2022/12/24 08:42:54;;;;;;;40.03;6.25;;;8.10;99.90;;;;;;5054847;28;20406;-28
2022/12/24 08:45:20;;;;;;;49.38;7.07;;;8.10;99.90;;;;;;5053707;28;20525;-27
2022/12/24 08:47:46;;;;;;;47.78;7.80;;;8.20;99.90;;;;;;5054397;28;20410;-27
2022/12/24 08:50:12;;;;;;;42.05;7.53;;;8.20;99.90;;;;;;5019980;28;20099;-28
2022/12/24 08:52:37;;;;;;;52.88;6.95;;;8.20;99.90;;;;;;5019847;28;20052;-27
2022/12/24 08:55:04;;;;;;;45.20;7.25;;;8.20;99.90;;;;;;5053842;28;20053;-27
2022/12/24 08:57:29;;;;;;;43.38;6.88;;;8.30;99.90;;;;;;5036685;28;20124;-27
2022/12/24 08:59:55;;;;;;;44.20;7.47;;;8.30;99.90;;;;;;5036007;28;20132;-27
2022/12/24 09:02:21;;;;;;;32.63;6.07;;;8.30;99.90;;;;;;5037021;28;20045;-27
2022/12/24 09:04:47;;;;;;;47.55;6.88;;;8.40;99.90;;;;;;5054521;28;20451;-27
2022/12/24 09:07:12;;;;;;;38.60;6.30;;;8.40;99.90;;;;;;5035785;28;20463;-28
2022/12/24 09:09:38;;;;;;;44.20;7.05;;;8.40;99.90;;;;;;5053657;28;20128;-27
2022/12/24 09:12:07;;;;;;;40.08;5.45;;;8.40;99.90;;;;;;5035793;28;20391;-27
2022/12/24 09:14:33;;;;;;;37.00;5.78;;;8.50;99.90;;;;;;5054495;28;20118;-27
2022/12/24 09:16:59;;;;;;;41.90;6.78;;;8.50;99.90;;;;;;5053548;28;20475;-28
2022/12/24 09:19:27;;;;;;;42.00;8.50;;;8.60;99.90;;;;;;5053562;28;20387;-28
2022/12/24 09:21:52;;;;;;;37.50;7.20;;;8.50;99.90;;;;;;5053504;28;20049;-27
2022/12/24 09:24:18;;;;;;;45.40;7.63;;;8.60;99.90;;;;;;5053745;28;20051;-27
2022/12/24 09:26:48;;;;;;;41.75;6.75;;;8.60;99.90;;;;;;5053339;28;20175;-27
2022/12/24 09:29:15;;;;;;;39.05;7.40;;;8.60;99.90;;;;;;5053925;28;20057;-27
2022/12/24 09:31:41;;;;;;;33.95;6.50;;;8.60;99.90;;;;;;5019413;28;20124;-29
2022/12/24 09:34:07;;;;;;;39.55;7.00;;;8.60;99.90;;;;;;5053232;28;20430;-28
2022/12/24 09:36:34;;;;;;;48.53;7.72;;;8.60;99.90;;;;;;5053967;28;20041;-28
2022/12/24 09:39:00;;;;;;;44.08;7.15;;;8.50;99.90;;;;;;5053322;28;20049;-27
2022/12/24 09:41:54;;;;;;;46.42;8.35;;;8.50;99.90;;;;;;5053381;28;20041;-27
2022/12/24 09:44:46;;;;;;;36.97;6.35;;;8.50;99.90;;;;;;5053570;28;20399;-27
2022/12/24 09:47:38;;;;;;;45.72;7.90;;;8.60;99.90;;;;;;5054101;28;20045;-28
2022/12/24 09:50:31;;;;;;;38.30;6.60;;;8.60;99.90;;;;;;5023494;28;20419;-28
2022/12/24 09:53:02;;;;;;;45.17;7.20;;;8.70;99.90;;;;;;5057317;28;20517;-28
2022/12/24 09:55:59;;;;;;;40.67;8.50;;;8.70;99.90;;;;;;5039322;28;20052;-28
2022/12/24 09:58:30;;;;;;;36.72;6.03;;;8.80;99.90;;;;;;5037528;28;20136;-28
2022/12/24 10:00:56;;;;;;;38.38;8.25;;;8.90;99.90;;;;;;5057684;28;20124;-29
2022/12/24 10:03:22;;;;;;;46.85;8.48;;;9.00;99.90;;;;;;5057008;28;20044;-28
2022/12/24 10:06:35;;;;;;;45.97;7.88;;;9.00;99.90;;;;;;5039155;28;20044;-28
2022/12/24 10:09:33;;;;;;;53.25;9.68;;;9.00;99.90;;;;;;5054700;28;20057;-28
2022/12/24 10:12:13;;;;;;;30.30;6.22;;;9.10;99.90;;;;;;5039279;28;20052;-28
2022/12/24 10:15:03;;;;;;;45.50;7.45;;;9.10;99.90;;;;;;5057435;28;20044;-28
2022/12/24 10:17:44;;;;;;;35.33;7.18;;;9.20;99.90;;;;;;5056824;28;20483;-28
2022/12/24 10:20:52;;;;;;;50.85;8.35;;;9.20;99.90;;;;;;5056798;28;20053;-28
2022/12/24 10:23:45;;;;;;;42.47;6.60;;;9.30;99.90;;;;;;5039954;28;20101;-28
2022/12/24 10:26:13;;;;;;;40.42;6.80;;;9.30;99.90;;;;;;5010896;28;20052;-28
2022/12/24 10:28:47;;;;;;;44.35;7.70;;;9.30;99.90;;;;;;5038996;28;20053;-28
2022/12/24 10:31:14;;;;;;;41.50;6.72;;;9.30;99.90;;;;;;5039236;28;20459;-28
2022/12/24 10:33:44;;;;;;;33.35;6.03;;;9.30;99.90;;;;;;5038633;28;20048;-28
2022/12/24 10:36:17;;;;;;;45.55;7.20;;;9.30;99.90;;;;;;5057637;28;20057;-28
2022/12/24 10:38:43;;;;;;;47.92;7.72;;;9.40;99.90;;;;;;5056764;28;20041;-28
2022/12/24 10:41:10;;;;;;;37.95;7.15;;;9.40;99.90;;;;;;5056033;28;20503;-28
2022/12/24 10:43:38;;;;;;;37.85;6.70;;;9.40;99.90;;;;;;5056266;28;20059;-28
2022/12/24 10:46:13;;;;;;;47.35;8.20;;;9.50;99.90;;;;;;5038423;28;20052;-28
2022/12/24 10:48:43;;;;;;;46.17;7.68;;;9.50;99.90;;;;;;5057048;28;20052;-28
2022/12/24 10:51:23;;;;;;;42.40;6.55;;;9.50;99.90;;;;;;5038841;28;20055;-28
2022/12/24 10:54:06;;;;;;;41.55;7.93;;;9.50;99.90;;;;;;5056177;28;20167;-28
2022/12/24 10:56:37;;;;;;;42.20;7.05;;;9.50;99.90;;;;;;5056633;28;20434;-28
2022/12/24 10:59:03;;;;;;;31.48;5.25;;;9.50;99.90;;;;;;5056457;28;20048;-28
2022/12/24 11:01:47;;;;;;;32.15;6.45;;;9.50;99.90;;;;;;5056228;28;20132;-28
2022/12/24 11:04:22;;;;;;;35.42;5.60;;;9.50;99.90;;;;;;5055943;28;20052;-28
2022/12/24 11:06:51;;;;;;;38.83;6.85;;;9.40;99.90;;;;;;5055793;28;20079;-28
2022/12/24 11:09:27;;;;;;;34.88;6.68;;;9.50;99.90;;;;;;5055853;28;20055;-28
2022/12/24 11:11:55;;;;;;;36.38;6.35;;;9.40;99.90;;;;;;5056405;28;20048;-27
2022/12/24 11:14:21;;;;;;;39.95;5.95;;;9.40;99.90;;;;;;5038813;28;20041;-27
2022/12/24 11:16:53;;;;;;;43.47;6.53;;;9.40;99.90;;;;;;5056216;28;20045;-27
2022/12/24 11:19:39;;;;;;;33.97;5.90;;;9.40;99.90;;;;;;5055591;28;20049;-27
2022/12/24 11:22:07;;;;;;;42.92;7.03;;;9.40;99.90;;;;;;5055623;28;20056;-27
2022/12/24 11:24:35;;;;;;;33.10;5.93;;;9.50;99.90;;;;;;5055520;28;20085;-27
2022/12/24 11:27:29;;;;;;;37.90;6.53;;;9.50;99.90;;;;;;5055396;28;20052;-27
2022/12/24 11:30:16;;;;;;;36.88;6.80;;;9.50;99.90;;;;;;5055435;28;20048;-27
2022/12/24 11:32:44;;;;;;;30.67;5.65;;;9.40;99.90;;;;;;5055075;28;20414;-27
2022/12/24 11:35:21;;;;;;;31.27;5.55;;;9.50;99.90;;;;;;5054750;28;20490;-28
2022/12/24 11:38:07;;;;;;;30.13;5.95;;;9.50;99.90;;;;;;5055214;28;20057;-27
2022/12/24 11:40:40;;;;;;;36.20;6.80;;;9.50;99.90;;;;;;5055540;28;20055;-27
2022/12/24 11:43:12;;;;;;;25.55;6.00;;;9.50;99.90;;;;;;5055270;28;20053;-28
2022/12/24 11:45:38;;;;;;;36.33;6.13;;;9.60;99.90;;;;;;5037459;28;20044;-28
2022/12/24 11:48:31;;;;;;;34.08;5.38;;;9.60;99.90;;;;;;5055293;28;20045;-27
2022/12/24 11:51:02;;;;;;;29.17;4.90;;;9.60;99.90;;;;;;5055408;28;20053;-27
2022/12/24 11:53:54;;;;;;;28.95;4.70;;;9.70;99.90;;;;;;5037712;28;20056;-27
2022/12/24 11:57:00;;;;;;;30.50;4.95;;;9.70;99.90;;;;;;5037663;28;20061;-27
2022/12/24 11:59:31;;;;;;;36.58;6.72;;;9.70;99.90;;;;;;4938726;29;20048;-28
2022/12/24 12:02:29;;;;;;;31.17;5.10;;;9.60;99.90;;;;;;4955060;29;20502;-28
2022/12/24 12:05:01;;;;;;;22.65;5.40;;;9.60;99.90;;;;;;5010711;28;20487;-27
2022/12/24 12:07:34;;;;;;;27.43;5.30;;;9.60;99.90;;;;;;5020800;28;20062;-28
2022/12/24 12:10:21;;;;;;;25.55;4.45;;;9.50;99.90;;;;;;5054970;28;20535;-27
2022/12/24 12:13:12;;;;;;;23.55;3.40;;;9.50;99.90;;;;;;5054972;28;20084;-27
2022/12/24 12:16:01;;;;;;;42.50;4.72;;;9.50;99.90;;;;;;5055124;28;20060;-28
2022/12/24 12:18:40;;;;;;;30.90;4.18;;;9.50;99.90;;;;;;5022580;28;20560;-27
2022/12/24 12:21:13;;;;;;;20.63;3.80;;;9.50;99.90;;;;;;5036845;28;20372;-27
2022/12/24 12:24:11;;;;;;;26.75;4.53;;;9.40;99.90;;;;;;5054412;28;20075;-27
2022/12/24 12:26:41;;;;;;;20.40;4.15;;;9.40;99.90;;;;;;5044772;28;20064;-28
2022/12/24 12:29:26;;;;;;;21.55;4.10;;;9.50;99.90;;;;;;5054356;28;20092;-27
2022/12/24 12:31:58;;;;;;;28.02;5.38;;;9.50;99.90;;;;;;5054317;28;20138;-28
2022/12/24 12:34:36;;;;;;;26.05;4.57;;;9.50;99.90;;;;;;5054500;28;20049;-28
2022/12/24 12:37:12;;;;;;;20.23;4.45;;;9.50;99.90;;;;;;5054802;28;20045;-28
2022/12/24 12:39:37;;;;;;;27.77;5.18;;;9.50;99.90;;;;;;5020179;28;20450;-28
2022/12/24 12:42:28;;;;;;;24.73;4.70;;;9.60;99.90;;;;;;5054067;28;20127;-27
2022/12/24 12:45:08;;;;;;;30.60;5.97;;;9.70;99.90;;;;;;5054588;28;20472;-28
2022/12/24 12:47:53;;;;;;;31.83;6.50;;;9.70;99.90;;;;;;5053900;28;20044;-27
2022/12/24 12:50:27;;;;;;;33.22;5.35;;;9.80;99.90;;;;;;5054476;28;20045;-27
2022/12/24 12:53:25;;;;;;;25.42;4.18;;;9.80;99.90;;;;;;5053906;28;20053;-28
2022/12/24 12:56:10;;;;;;;22.38;5.05;;;;;;;;;;5036369;28;20480;-28
2022/12/24 12:59:09;;;;;;;31.35;4.82;;;9.70;99.90;;;;;;5053793;28;20045;-26
2022/12/24 13:02:12;;;;;;;28.77;5.00;;;9.60;99.90;;;;;;5053901;28;20048;-26
2022/12/24 13:05:18;;;;;;;21.92;4.68;;;9.60;99.90;;;;;;5053990;28;20410;-26
2022/12/24 13:08:21;;;;;;;26.60;4.43;;;9.50;99.90;;;;;;5053589;28;20531;-26
2022/12/24 13:11:05;;;;;;;28.38;4.55;;;9.50;99.90;;;;;;5053675;28;20059;-26